sensor_id;sensor_type;location;lat;lon;timestamp;P1;durP1;ratioP1;P2;durP2;ratioP2
12383;SDS011;6256;63.808;20.336;2023-11-21T00:01:56;0.47;;;0.47;;
12383;SDS011;6256;63.808;20.336;2023-11-21T00:04:23;0.40;;;0.40;;
12383;SDS011;6256;63.808;20.336;2023-11-21T00:06:48;0.60;;;0.60;;
12383;SDS011;6256;63.808;20.336;2023-11-21T00:09:14;1.00;;;1.00;;
12383;SDS011;6256;63.808;20.336;2023-11-21T00:11:40;1.13;;;1.13;;
12383;SDS011;6256;63.808;20.336;2023-11-21T00:14:06;1.50;;;1.27;;
12383;SDS011;6256;63.808;20.336;2023-11-21T00:16:35;0.60;;;0.60;;
12383;SDS011;6256;63.808;20.336;2023-11-21T00:19:00;0.70;;;0.70;;
12383;SDS011;6256;63.808;20.336;2023-11-21T00:21:26;2.10;;;1.33;;
12383;SDS011;6256;63.808;20.336;2023-11-21T00:23:52;0.60;;;0.60;;
12383;SDS011;6256;63.808;20.336;2023-11-21T00:26:17;1.77;;;0.80;;
12383;SDS011;6256;63.808;20.336;2023-11-21T00:28:43;1.03;;;1.03;;
12383;SDS011;6256;63.808;20.336;2023-11-21T00:31:09;0.83;;;0.80;;
12383;SDS011;6256;63.808;20.336;2023-11-21T00:33:34;0.63;;;0.63;;
12383;SDS011;6256;63.808;20.336;2023-11-21T00:36:00;0.80;;;0.80;;
12383;SDS011;6256;63.808;20.336;2023-11-21T00:38:26;0.77;;;0.77;;
12383;SDS011;6256;63.808;20.336;2023-11-21T00:40:52;0.50;;;0.50;;
12383;SDS011;6256;63.808;20.336;2023-11-21T00:43:21;0.30;;;0.30;;
12383;SDS011;6256;63.808;20.336;2023-11-21T00:45:48;0.40;;;0.40;;
12383;SDS011;6256;63.808;20.336;2023-11-21T00:48:14;1.73;;;1.63;;
12383;SDS011;6256;63.808;20.336;2023-11-21T00:50:40;0.43;;;0.43;;
12383;SDS011;6256;63.808;20.336;2023-11-21T00:53:05;0.30;;;0.30;;
12383;SDS011;6256;63.808;20.336;2023-11-21T00:55:32;0.60;;;0.60;;
12383;SDS011;6256;63.808;20.336;2023-11-21T00:57:59;0.40;;;0.40;;
12383;SDS011;6256;63.808;20.336;2023-11-21T01:00:25;0.40;;;0.40;;
12383;SDS011;6256;63.808;20.336;2023-11-21T01:02:51;0.83;;;0.60;;
12383;SDS011;6256;63.808;20.336;2023-11-21T01:05:16;1.63;;;0.43;;
12383;SDS011;6256;63.808;20.336;2023-11-21T01:07:42;0.70;;;0.70;;
12383;SDS011;6256;63.808;20.336;2023-11-21T01:10:08;0.50;;;0.50;;
12383;SDS011;6256;63.808;20.336;2023-11-21T01:12:35;0.53;;;0.53;;
12383;SDS011;6256;63.808;20.336;2023-11-21T01:15:05;0.40;;;0.40;;
12383;SDS011;6256;63.808;20.336;2023-11-21T01:17:34;0.50;;;0.50;;
12383;SDS011;6256;63.808;20.336;2023-11-21T01:20:00;0.30;;;0.30;;
12383;SDS011;6256;63.808;20.336;2023-11-21T01:22:28;0.40;;;0.40;;
12383;SDS011;6256;63.808;20.336;2023-11-21T01:24:53;1.00;;;1.00;;
12383;SDS011;6256;63.808;20.336;2023-11-21T01:27:19;0.50;;;0.50;;
12383;SDS011;6256;63.808;20.336;2023-11-21T01:29:45;0.40;;;0.40;;
12383;SDS011;6256;63.808;20.336;2023-11-21T01:32:10;0.50;;;0.50;;
12383;SDS011;6256;63.808;20.336;2023-11-21T01:34:36;0.60;;;0.60;;
12383;SDS011;6256;63.808;20.336;2023-11-21T01:37:02;0.40;;;0.40;;
12383;SDS011;6256;63.808;20.336;2023-11-21T01:39:30;4.17;;;0.63;;
12383;SDS011;6256;63.808;20.336;2023-11-21T01:41:56;0.40;;;0.40;;
12383;SDS011;6256;63.808;20.336;2023-11-21T01:44:26;0.47;;;0.47;;
12383;SDS011;6256;63.808;20.336;2023-11-21T01:46:52;0.33;;;0.33;;
12383;SDS011;6256;63.808;20.336;2023-11-21T01:49:18;0.40;;;0.40;;
12383;SDS011;6256;63.808;20.336;2023-11-21T01:51:46;0.40;;;0.40;;
12383;SDS011;6256;63.808;20.336;2023-11-21T01:54:14;0.30;;;0.30;;
12383;SDS011;6256;63.808;20.336;2023-11-21T01:56:46;0.40;;;0.40;;
12383;SDS011;6256;63.808;20.336;2023-11-21T01:59:17;0.40;;;0.40;;
12383;SDS011;6256;63.808;20.336;2023-11-21T02:01:46;0.33;;;0.33;;
12383;SDS011;6256;63.808;20.336;2023-11-21T02:04:12;0.40;;;0.40;;
12383;SDS011;6256;63.808;20.336;2023-11-21T02:06:38;0.30;;;0.30;;
12383;SDS011;6256;63.808;20.336;2023-11-21T02:09:04;0.40;;;0.40;;
12383;SDS011;6256;63.808;20.336;2023-11-21T02:11:30;0.50;;;0.50;;
12383;SDS011;6256;63.808;20.336;2023-11-21T02:13:59;0.50;;;0.50;;
12383;SDS011;6256;63.808;20.336;2023-11-21T02:16:26;0.40;;;0.40;;
12383;SDS011;6256;63.808;20.336;2023-11-21T02:18:52;0.60;;;0.60;;
12383;SDS011;6256;63.808;20.336;2023-11-21T02:21:18;0.50;;;0.50;;
12383;SDS011;6256;63.808;20.336;2023-11-21T02:23:46;0.30;;;0.30;;
12383;SDS011;6256;63.808;20.336;2023-11-21T02:26:12;0.33;;;0.33;;
12383;SDS011;6256;63.808;20.336;2023-11-21T02:28:39;0.80;;;0.80;;
12383;SDS011;6256;63.808;20.336;2023-11-21T02:31:05;0.40;;;0.40;;
12383;SDS011;6256;63.808;20.336;2023-11-21T02:33:32;0.40;;;0.40;;
12383;SDS011;6256;63.808;20.336;2023-11-21T02:35:59;0.43;;;0.43;;
12383;SDS011;6256;63.808;20.336;2023-11-21T02:38:28;0.40;;;0.40;;
12383;SDS011;6256;63.808;20.336;2023-11-21T02:40:54;0.40;;;0.40;;
12383;SDS011;6256;63.808;20.336;2023-11-21T02:43:22;0.90;;;0.90;;
12383;SDS011;6256;63.808;20.336;2023-11-21T02:45:48;1.70;;;1.70;;
12383;SDS011;6256;63.808;20.336;2023-11-21T02:48:13;0.50;;;0.50;;
12383;SDS011;6256;63.808;20.336;2023-11-21T02:50:39;0.30;;;0.30;;
12383;SDS011;6256;63.808;20.336;2023-11-21T02:53:04;0.60;;;0.60;;
12383;SDS011;6256;63.808;20.336;2023-11-21T02:55:33;0.30;;;0.30;;
12383;SDS011;6256;63.808;20.336;2023-11-21T02:58:02;0.47;;;0.47;;
12383;SDS011;6256;63.808;20.336;2023-11-21T03:00:31;0.30;;;0.30;;
12383;SDS011;6256;63.808;20.336;2023-11-21T03:02:57;0.30;;;0.30;;
12383;SDS011;6256;63.808;20.336;2023-11-21T03:05:23;0.60;;;0.60;;
12383;SDS011;6256;63.808;20.336;2023-11-21T03:07:48;0.50;;;0.50;;
12383;SDS011;6256;63.808;20.336;2023-11-21T03:10:14;0.30;;;0.30;;
12383;SDS011;6256;63.808;20.336;2023-11-21T03:12:40;0.40;;;0.40;;
12383;SDS011;6256;63.808;20.336;2023-11-21T03:15:06;0.30;;;0.30;;
12383;SDS011;6256;63.808;20.336;2023-11-21T03:17:32;0.40;;;0.40;;
12383;SDS011;6256;63.808;20.336;2023-11-21T03:19:59;0.40;;;0.40;;
12383;SDS011;6256;63.808;20.336;2023-11-21T03:22:25;0.50;;;0.50;;
12383;SDS011;6256;63.808;20.336;2023-11-21T03:24:51;0.40;;;0.40;;
12383;SDS011;6256;63.808;20.336;2023-11-21T03:27:17;0.40;;;0.40;;
12383;SDS011;6256;63.808;20.336;2023-11-21T03:29:43;0.47;;;0.47;;
12383;SDS011;6256;63.808;20.336;2023-11-21T03:32:10;0.43;;;0.43;;
12383;SDS011;6256;63.808;20.336;2023-11-21T03:34:41;0.40;;;0.40;;
12383;SDS011;6256;63.808;20.336;2023-11-21T03:37:19;0.40;;;0.40;;
12383;SDS011;6256;63.808;20.336;2023-11-21T03:39:45;0.40;;;0.40;;
12383;SDS011;6256;63.808;20.336;2023-11-21T03:42:12;0.30;;;0.30;;
12383;SDS011;6256;63.808;20.336;2023-11-21T03:44:38;0.40;;;0.40;;
12383;SDS011;6256;63.808;20.336;2023-11-21T03:47:03;0.37;;;0.37;;
12383;SDS011;6256;63.808;20.336;2023-11-21T03:49:30;0.37;;;0.37;;
12383;SDS011;6256;63.808;20.336;2023-11-21T03:51:56;0.40;;;0.40;;
12383;SDS011;6256;63.808;20.336;2023-11-21T03:54:21;0.40;;;0.40;;
12383;SDS011;6256;63.808;20.336;2023-11-21T03:56:47;0.40;;;0.40;;
12383;SDS011;6256;63.808;20.336;2023-11-21T03:59:13;0.60;;;0.60;;
12383;SDS011;6256;63.808;20.336;2023-11-21T04:01:38;0.67;;;0.60;;
12383;SDS011;6256;63.808;20.336;2023-11-21T04:04:04;0.40;;;0.40;;
12383;SDS011;6256;63.808;20.336;2023-11-21T04:06:29;0.40;;;0.40;;
12383;SDS011;6256;63.808;20.336;2023-11-21T04:08:57;0.30;;;0.30;;
12383;SDS011;6256;63.808;20.336;2023-11-21T04:11:23;0.40;;;0.40;;
12383;SDS011;6256;63.808;20.336;2023-11-21T04:13:49;0.30;;;0.30;;
12383;SDS011;6256;63.808;20.336;2023-11-21T04:16:15;0.40;;;0.40;;
12383;SDS011;6256;63.808;20.336;2023-11-21T04:18:40;0.40;;;0.40;;
12383;SDS011;6256;63.808;20.336;2023-11-21T04:21:06;0.40;;;0.40;;
12383;SDS011;6256;63.808;20.336;2023-11-21T04:23:33;0.40;;;0.40;;
12383;SDS011;6256;63.808;20.336;2023-11-21T04:26:00;1.47;;;1.00;;
12383;SDS011;6256;63.808;20.336;2023-11-21T04:28:27;0.40;;;0.40;;
12383;SDS011;6256;63.808;20.336;2023-11-21T04:30:53;0.50;;;0.50;;
12383;SDS011;6256;63.808;20.336;2023-11-21T04:33:18;0.47;;;0.47;;
12383;SDS011;6256;63.808;20.336;2023-11-21T04:35:44;0.30;;;0.30;;
12383;SDS011;6256;63.808;20.336;2023-11-21T04:38:11;0.50;;;0.50;;
12383;SDS011;6256;63.808;20.336;2023-11-21T04:40:36;0.50;;;0.50;;
12383;SDS011;6256;63.808;20.336;2023-11-21T04:43:02;0.97;;;0.97;;
12383;SDS011;6256;63.808;20.336;2023-11-21T04:45:29;0.40;;;0.40;;
12383;SDS011;6256;63.808;20.336;2023-11-21T04:47:55;0.30;;;0.30;;
12383;SDS011;6256;63.808;20.336;2023-11-21T04:50:21;0.47;;;0.47;;
12383;SDS011;6256;63.808;20.336;2023-11-21T04:52:47;0.30;;;0.30;;
12383;SDS011;6256;63.808;20.336;2023-11-21T04:55:12;0.53;;;0.53;;
12383;SDS011;6256;63.808;20.336;2023-11-21T04:57:38;0.40;;;0.40;;
12383;SDS011;6256;63.808;20.336;2023-11-21T05:00:09;0.40;;;0.40;;
12383;SDS011;6256;63.808;20.336;2023-11-21T05:02:35;0.40;;;0.40;;
12383;SDS011;6256;63.808;20.336;2023-11-21T05:05:00;0.37;;;0.37;;
12383;SDS011;6256;63.808;20.336;2023-11-21T05:07:27;1.23;;;1.23;;
12383;SDS011;6256;63.808;20.336;2023-11-21T05:09:55;0.40;;;0.40;;
12383;SDS011;6256;63.808;20.336;2023-11-21T05:12:24;0.53;;;0.53;;
12383;SDS011;6256;63.808;20.336;2023-11-21T05:14:52;0.30;;;0.30;;
12383;SDS011;6256;63.808;20.336;2023-11-21T05:17:18;0.30;;;0.30;;
12383;SDS011;6256;63.808;20.336;2023-11-21T05:19:43;0.40;;;0.40;;
12383;SDS011;6256;63.808;20.336;2023-11-21T05:22:10;0.37;;;0.37;;
12383;SDS011;6256;63.808;20.336;2023-11-21T05:24:37;0.30;;;0.30;;
12383;SDS011;6256;63.808;20.336;2023-11-21T05:27:04;0.40;;;0.40;;
12383;SDS011;6256;63.808;20.336;2023-11-21T05:29:30;0.30;;;0.30;;
12383;SDS011;6256;63.808;20.336;2023-11-21T05:31:56;0.60;;;0.60;;
12383;SDS011;6256;63.808;20.336;2023-11-21T05:34:22;0.53;;;0.53;;
12383;SDS011;6256;63.808;20.336;2023-11-21T05:36:49;0.63;;;0.63;;
12383;SDS011;6256;63.808;20.336;2023-11-21T05:39:15;0.40;;;0.40;;
12383;SDS011;6256;63.808;20.336;2023-11-21T05:41:42;0.30;;;0.30;;
12383;SDS011;6256;63.808;20.336;2023-11-21T05:44:08;0.30;;;0.30;;
12383;SDS011;6256;63.808;20.336;2023-11-21T05:46:34;0.50;;;0.50;;
12383;SDS011;6256;63.808;20.336;2023-11-21T05:49:00;1.00;;;1.00;;
12383;SDS011;6256;63.808;20.336;2023-11-21T05:51:25;2.87;;;0.80;;
12383;SDS011;6256;63.808;20.336;2023-11-21T05:53:51;0.40;;;0.40;;
12383;SDS011;6256;63.808;20.336;2023-11-21T05:56:17;0.40;;;0.40;;
12383;SDS011;6256;63.808;20.336;2023-11-21T05:58:43;0.40;;;0.40;;
12383;SDS011;6256;63.808;20.336;2023-11-21T06:01:08;0.40;;;0.40;;
12383;SDS011;6256;63.808;20.336;2023-11-21T06:03:37;0.43;;;0.43;;
12383;SDS011;6256;63.808;20.336;2023-11-21T06:06:03;0.43;;;0.43;;
12383;SDS011;6256;63.808;20.336;2023-11-21T06:08:29;0.30;;;0.30;;
12383;SDS011;6256;63.808;20.336;2023-11-21T06:10:55;0.50;;;0.50;;
12383;SDS011;6256;63.808;20.336;2023-11-21T06:13:21;0.30;;;0.30;;
12383;SDS011;6256;63.808;20.336;2023-11-21T06:15:49;0.40;;;0.40;;
12383;SDS011;6256;63.808;20.336;2023-11-21T06:18:16;0.30;;;0.30;;
12383;SDS011;6256;63.808;20.336;2023-11-21T06:20:44;0.50;;;0.50;;
12383;SDS011;6256;63.808;20.336;2023-11-21T06:23:10;0.40;;;0.40;;
12383;SDS011;6256;63.808;20.336;2023-11-21T06:25:36;0.50;;;0.50;;
12383;SDS011;6256;63.808;20.336;2023-11-21T06:28:02;0.50;;;0.50;;
12383;SDS011;6256;63.808;20.336;2023-11-21T06:30:28;0.40;;;0.40;;
12383;SDS011;6256;63.808;20.336;2023-11-21T06:32:54;0.63;;;0.63;;
12383;SDS011;6256;63.808;20.336;2023-11-21T06:35:21;0.40;;;0.40;;
12383;SDS011;6256;63.808;20.336;2023-11-21T06:37:47;0.40;;;0.40;;
12383;SDS011;6256;63.808;20.336;2023-11-21T06:40:13;0.40;;;0.40;;
12383;SDS011;6256;63.808;20.336;2023-11-21T06:42:43;3.30;;;0.73;;
12383;SDS011;6256;63.808;20.336;2023-11-21T06:45:09;0.60;;;0.60;;
12383;SDS011;6256;63.808;20.336;2023-11-21T06:47:36;0.30;;;0.30;;
12383;SDS011;6256;63.808;20.336;2023-11-21T06:50:03;0.60;;;0.60;;
12383;SDS011;6256;63.808;20.336;2023-11-21T06:52:29;0.47;;;0.47;;
12383;SDS011;6256;63.808;20.336;2023-11-21T06:54:54;0.30;;;0.30;;
12383;SDS011;6256;63.808;20.336;2023-11-21T06:57:22;0.40;;;0.40;;
12383;SDS011;6256;63.808;20.336;2023-11-21T06:59:48;0.40;;;0.40;;
12383;SDS011;6256;63.808;20.336;2023-11-21T07:02:15;0.40;;;0.40;;
12383;SDS011;6256;63.808;20.336;2023-11-21T07:04:43;0.40;;;0.40;;
12383;SDS011;6256;63.808;20.336;2023-11-21T07:07:11;0.30;;;0.30;;
12383;SDS011;6256;63.808;20.336;2023-11-21T07:09:37;0.30;;;0.30;;
12383;SDS011;6256;63.808;20.336;2023-11-21T07:12:03;0.50;;;0.50;;
12383;SDS011;6256;63.808;20.336;2023-11-21T07:14:32;0.43;;;0.43;;
12383;SDS011;6256;63.808;20.336;2023-11-21T07:17:02;0.43;;;0.43;;
12383;SDS011;6256;63.808;20.336;2023-11-21T07:19:28;0.30;;;0.30;;
12383;SDS011;6256;63.808;20.336;2023-11-21T07:21:54;0.30;;;0.30;;
12383;SDS011;6256;63.808;20.336;2023-11-21T07:24:20;0.47;;;0.47;;
12383;SDS011;6256;63.808;20.336;2023-11-21T07:26:47;0.50;;;0.50;;
12383;SDS011;6256;63.808;20.336;2023-11-21T07:29:13;0.40;;;0.40;;
12383;SDS011;6256;63.808;20.336;2023-11-21T07:31:39;0.40;;;0.40;;
12383;SDS011;6256;63.808;20.336;2023-11-21T07:34:06;0.60;;;0.60;;
12383;SDS011;6256;63.808;20.336;2023-11-21T07:36:33;0.40;;;0.40;;
12383;SDS011;6256;63.808;20.336;2023-11-21T07:38:59;0.60;;;0.60;;
12383;SDS011;6256;63.808;20.336;2023-11-21T07:41:25;0.50;;;0.50;;
12383;SDS011;6256;63.808;20.336;2023-11-21T07:43:51;0.70;;;0.70;;
12383;SDS011;6256;63.808;20.336;2023-11-21T07:46:17;0.40;;;0.40;;
12383;SDS011;6256;63.808;20.336;2023-11-21T07:48:43;0.50;;;0.50;;
12383;SDS011;6256;63.808;20.336;2023-11-21T07:51:09;0.30;;;0.30;;
12383;SDS011;6256;63.808;20.336;2023-11-21T07:53:35;0.33;;;0.33;;
12383;SDS011;6256;63.808;20.336;2023-11-21T07:56:08;0.50;;;0.50;;
12383;SDS011;6256;63.808;20.336;2023-11-21T07:58:35;0.57;;;0.57;;
12383;SDS011;6256;63.808;20.336;2023-11-21T08:01:01;0.40;;;0.40;;
12383;SDS011;6256;63.808;20.336;2023-11-21T08:03:28;0.63;;;0.63;;
12383;SDS011;6256;63.808;20.336;2023-11-21T08:05:59;0.50;;;0.50;;
12383;SDS011;6256;63.808;20.336;2023-11-21T08:08:28;0.40;;;0.40;;
12383;SDS011;6256;63.808;20.336;2023-11-21T08:10:54;0.30;;;0.30;;
12383;SDS011;6256;63.808;20.336;2023-11-21T08:13:23;0.40;;;0.40;;
12383;SDS011;6256;63.808;20.336;2023-11-21T08:15:55;0.50;;;0.50;;
12383;SDS011;6256;63.808;20.336;2023-11-21T08:18:26;0.50;;;0.50;;
12383;SDS011;6256;63.808;20.336;2023-11-21T08:20:52;0.40;;;0.40;;
12383;SDS011;6256;63.808;20.336;2023-11-21T08:23:20;0.40;;;0.40;;
12383;SDS011;6256;63.808;20.336;2023-11-21T08:25:46;0.50;;;0.50;;
12383;SDS011;6256;63.808;20.336;2023-11-21T08:28:12;0.43;;;0.43;;
12383;SDS011;6256;63.808;20.336;2023-11-21T08:30:41;0.40;;;0.40;;
12383;SDS011;6256;63.808;20.336;2023-11-21T08:33:07;0.40;;;0.40;;
12383;SDS011;6256;63.808;20.336;2023-11-21T08:35:39;0.50;;;0.50;;
12383;SDS011;6256;63.808;20.336;2023-11-21T08:38:04;0.53;;;0.53;;
12383;SDS011;6256;63.808;20.336;2023-11-21T08:40:30;0.40;;;0.40;;
12383;SDS011;6256;63.808;20.336;2023-11-21T08:42:56;0.57;;;0.57;;
12383;SDS011;6256;63.808;20.336;2023-11-21T08:45:23;0.40;;;0.40;;
12383;SDS011;6256;63.808;20.336;2023-11-21T08:47:50;0.50;;;0.50;;
12383;SDS011;6256;63.808;20.336;2023-11-21T08:50:17;0.40;;;0.40;;
12383;SDS011;6256;63.808;20.336;2023-11-21T08:52:43;0.40;;;0.40;;
12383;SDS011;6256;63.808;20.336;2023-11-21T08:55:11;0.47;;;0.47;;
12383;SDS011;6256;63.808;20.336;2023-11-21T08:57:40;0.57;;;0.57;;
12383;SDS011;6256;63.808;20.336;2023-11-21T09:00:08;0.60;;;0.60;;
12383;SDS011;6256;63.808;20.336;2023-11-21T09:02:36;0.50;;;0.50;;
12383;SDS011;6256;63.808;20.336;2023-11-21T09:05:03;0.60;;;0.60;;
12383;SDS011;6256;63.808;20.336;2023-11-21T09:07:33;0.80;;;0.80;;
12383;SDS011;6256;63.808;20.336;2023-11-21T09:09:59;0.37;;;0.37;;
12383;SDS011;6256;63.808;20.336;2023-11-21T09:12:25;0.40;;;0.40;;
12383;SDS011;6256;63.808;20.336;2023-11-21T09:14:51;0.40;;;0.40;;
12383;SDS011;6256;63.808;20.336;2023-11-21T09:17:16;0.50;;;0.50;;
12383;SDS011;6256;63.808;20.336;2023-11-21T09:19:42;0.40;;;0.40;;
12383;SDS011;6256;63.808;20.336;2023-11-21T09:22:15;0.50;;;0.50;;
12383;SDS011;6256;63.808;20.336;2023-11-21T09:24:41;0.50;;;0.50;;
12383;SDS011;6256;63.808;20.336;2023-11-21T09:27:07;0.40;;;0.40;;
12383;SDS011;6256;63.808;20.336;2023-11-21T09:29:34;0.33;;;0.33;;
12383;SDS011;6256;63.808;20.336;2023-11-21T09:32:04;0.50;;;0.50;;
12383;SDS011;6256;63.808;20.336;2023-11-21T09:34:32;0.60;;;0.60;;
12383;SDS011;6256;63.808;20.336;2023-11-21T09:36:58;0.40;;;0.40;;
12383;SDS011;6256;63.808;20.336;2023-11-21T09:39:24;0.40;;;0.40;;
12383;SDS011;6256;63.808;20.336;2023-11-21T09:41:50;0.40;;;0.40;;
12383;SDS011;6256;63.808;20.336;2023-11-21T09:44:22;0.50;;;0.50;;
12383;SDS011;6256;63.808;20.336;2023-11-21T09:47:00;0.70;;;0.70;;
12383;SDS011;6256;63.808;20.336;2023-11-21T09:49:27;0.40;;;0.40;;
12383;SDS011;6256;63.808;20.336;2023-11-21T09:51:56;0.40;;;0.40;;
12383;SDS011;6256;63.808;20.336;2023-11-21T09:54:23;0.50;;;0.50;;
12383;SDS011;6256;63.808;20.336;2023-11-21T09:56:50;0.40;;;0.40;;
12383;SDS011;6256;63.808;20.336;2023-11-21T09:59:15;0.40;;;0.40;;
12383;SDS011;6256;63.808;20.336;2023-11-21T10:01:41;0.47;;;0.47;;
12383;SDS011;6256;63.808;20.336;2023-11-21T10:04:11;0.40;;;0.40;;
12383;SDS011;6256;63.808;20.336;2023-11-21T10:06:40;0.40;;;0.40;;
12383;SDS011;6256;63.808;20.336;2023-11-21T10:09:08;1.03;;;1.03;;
12383;SDS011;6256;63.808;20.336;2023-11-21T10:11:39;0.47;;;0.47;;
12383;SDS011;6256;63.808;20.336;2023-11-21T10:14:07;0.60;;;0.60;;
12383;SDS011;6256;63.808;20.336;2023-11-21T10:16:35;0.90;;;0.90;;
12383;SDS011;6256;63.808;20.336;2023-11-21T10:19:04;0.40;;;0.40;;
12383;SDS011;6256;63.808;20.336;2023-11-21T10:21:34;0.40;;;0.40;;
12383;SDS011;6256;63.808;20.336;2023-11-21T10:24:00;0.40;;;0.40;;
12383;SDS011;6256;63.808;20.336;2023-11-21T10:26:26;0.50;;;0.50;;
12383;SDS011;6256;63.808;20.336;2023-11-21T10:29:00;0.40;;;0.40;;
12383;SDS011;6256;63.808;20.336;2023-11-21T10:31:28;0.47;;;0.47;;
12383;SDS011;6256;63.808;20.336;2023-11-21T10:34:16;0.50;;;0.50;;
12383;SDS011;6256;63.808;20.336;2023-11-21T10:36:46;0.60;;;0.60;;
12383;SDS011;6256;63.808;20.336;2023-11-21T10:39:18;0.87;;;0.70;;
12383;SDS011;6256;63.808;20.336;2023-11-21T10:41:49;0.50;;;0.50;;
12383;SDS011;6256;63.808;20.336;2023-11-21T10:44:16;0.50;;;0.50;;
12383;SDS011;6256;63.808;20.336;2023-11-21T10:46:46;0.93;;;0.93;;
12383;SDS011;6256;63.808;20.336;2023-11-21T10:49:16;0.60;;;0.60;;
12383;SDS011;6256;63.808;20.336;2023-11-21T10:51:43;0.50;;;0.50;;
12383;SDS011;6256;63.808;20.336;2023-11-21T10:54:09;0.40;;;0.40;;
12383;SDS011;6256;63.808;20.336;2023-11-21T10:56:37;0.47;;;0.47;;
12383;SDS011;6256;63.808;20.336;2023-11-21T10:59:07;0.60;;;0.60;;
12383;SDS011;6256;63.808;20.336;2023-11-21T11:01:36;0.40;;;0.40;;
12383;SDS011;6256;63.808;20.336;2023-11-21T11:04:02;0.30;;;0.30;;
12383;SDS011;6256;63.808;20.336;2023-11-21T11:06:31;0.30;;;0.30;;
12383;SDS011;6256;63.808;20.336;2023-11-21T11:08:58;0.37;;;0.37;;
12383;SDS011;6256;63.808;20.336;2023-11-21T11:11:27;0.50;;;0.50;;
12383;SDS011;6256;63.808;20.336;2023-11-21T11:13:55;0.43;;;0.43;;
12383;SDS011;6256;63.808;20.336;2023-11-21T11:16:21;1.30;;;0.80;;
12383;SDS011;6256;63.808;20.336;2023-11-21T11:18:49;0.70;;;0.70;;
12383;SDS011;6256;63.808;20.336;2023-11-21T11:27:26;0.40;;;0.40;;
12383;SDS011;6256;63.808;20.336;2023-11-21T11:38:59;0.30;;;0.30;;
12383;SDS011;6256;63.808;20.336;2023-11-21T11:41:27;0.50;;;0.50;;
12383;SDS011;6256;63.808;20.336;2023-11-21T11:43:57;0.60;;;0.60;;
12383;SDS011;6256;63.808;20.336;2023-11-21T11:46:42;0.77;;;0.77;;
12383;SDS011;6256;63.808;20.336;2023-11-21T11:49:14;0.40;;;0.40;;
12383;SDS011;6256;63.808;20.336;2023-11-21T11:52:31;0.97;;;0.97;;
12383;SDS011;6256;63.808;20.336;2023-11-21T11:54:54;0.30;;;0.30;;
12383;SDS011;6256;63.808;20.336;2023-11-21T11:57:23;0.60;;;0.60;;
12383;SDS011;6256;63.808;20.336;2023-11-21T12:02:50;0.50;;;0.50;;
12383;SDS011;6256;63.808;20.336;2023-11-21T12:05:21;0.50;;;0.50;;
12383;SDS011;6256;63.808;20.336;2023-11-21T12:07:51;0.60;;;0.60;;
12383;SDS011;6256;63.808;20.336;2023-11-21T12:10:19;0.67;;;0.67;;
12383;SDS011;6256;63.808;20.336;2023-11-21T12:12:46;0.40;;;0.40;;
12383;SDS011;6256;63.808;20.336;2023-11-21T12:15:12;0.40;;;0.40;;
12383;SDS011;6256;63.808;20.336;2023-11-21T12:17:39;0.40;;;0.40;;
12383;SDS011;6256;63.808;20.336;2023-11-21T12:20:05;0.33;;;0.33;;
12383;SDS011;6256;63.808;20.336;2023-11-21T12:22:39;0.40;;;0.40;;
12383;SDS011;6256;63.808;20.336;2023-11-21T12:25:09;1.07;;;0.97;;
12383;SDS011;6256;63.808;20.336;2023-11-21T12:27:41;0.40;;;0.40;;
12383;SDS011;6256;63.808;20.336;2023-11-21T12:30:07;0.40;;;0.40;;
12383;SDS011;6256;63.808;20.336;2023-11-21T12:32:39;0.40;;;0.40;;
12383;SDS011;6256;63.808;20.336;2023-11-21T12:35:06;0.30;;;0.30;;
12383;SDS011;6256;63.808;20.336;2023-11-21T12:37:34;0.57;;;0.57;;
12383;SDS011;6256;63.808;20.336;2023-11-21T12:40:01;0.40;;;0.40;;
12383;SDS011;6256;63.808;20.336;2023-11-21T12:42:27;0.63;;;0.63;;
12383;SDS011;6256;63.808;20.336;2023-11-21T12:47:39;1.30;;;1.23;;
12383;SDS011;6256;63.808;20.336;2023-11-21T12:50:05;0.50;;;0.50;;
12383;SDS011;6256;63.808;20.336;2023-11-21T12:52:32;0.30;;;0.30;;
12383;SDS011;6256;63.808;20.336;2023-11-21T12:54:58;0.40;;;0.40;;
12383;SDS011;6256;63.808;20.336;2023-11-21T12:57:27;0.70;;;0.70;;
12383;SDS011;6256;63.808;20.336;2023-11-21T12:59:56;0.40;;;0.40;;
12383;SDS011;6256;63.808;20.336;2023-11-21T13:02:26;0.40;;;0.40;;
12383;SDS011;6256;63.808;20.336;2023-11-21T13:04:52;0.50;;;0.50;;
12383;SDS011;6256;63.808;20.336;2023-11-21T13:07:19;0.83;;;0.83;;
12383;SDS011;6256;63.808;20.336;2023-11-21T13:09:48;0.40;;;0.40;;
12383;SDS011;6256;63.808;20.336;2023-11-21T13:12:17;0.60;;;0.60;;
12383;SDS011;6256;63.808;20.336;2023-11-21T13:14:49;0.40;;;0.40;;
12383;SDS011;6256;63.808;20.336;2023-11-21T13:17:15;0.53;;;0.53;;
12383;SDS011;6256;63.808;20.336;2023-11-21T13:19:41;0.40;;;0.40;;
12383;SDS011;6256;63.808;20.336;2023-11-21T13:22:07;0.50;;;0.50;;
12383;SDS011;6256;63.808;20.336;2023-11-21T13:24:36;0.60;;;0.60;;
12383;SDS011;6256;63.808;20.336;2023-11-21T13:27:02;0.67;;;0.67;;
12383;SDS011;6256;63.808;20.336;2023-11-21T13:29:27;0.30;;;0.30;;
12383;SDS011;6256;63.808;20.336;2023-11-21T13:31:54;0.43;;;0.43;;
12383;SDS011;6256;63.808;20.336;2023-11-21T13:34:20;0.50;;;0.50;;
12383;SDS011;6256;63.808;20.336;2023-11-21T13:36:47;0.50;;;0.50;;
12383;SDS011;6256;63.808;20.336;2023-11-21T13:39:13;0.40;;;0.40;;
12383;SDS011;6256;63.808;20.336;2023-11-21T13:41:41;0.40;;;0.40;;
12383;SDS011;6256;63.808;20.336;2023-11-21T13:44:07;0.63;;;0.63;;
12383;SDS011;6256;63.808;20.336;2023-11-21T13:46:51;1.43;;;1.23;;
12383;SDS011;6256;63.808;20.336;2023-11-21T13:49:17;0.80;;;0.80;;
12383;SDS011;6256;63.808;20.336;2023-11-21T13:51:46;0.40;;;0.40;;
12383;SDS011;6256;63.808;20.336;2023-11-21T13:54:15;0.60;;;0.60;;
12383;SDS011;6256;63.808;20.336;2023-11-21T13:56:41;0.40;;;0.40;;
12383;SDS011;6256;63.808;20.336;2023-11-21T13:59:09;0.60;;;0.60;;
12383;SDS011;6256;63.808;20.336;2023-11-21T14:01:45;0.40;;;0.40;;
12383;SDS011;6256;63.808;20.336;2023-11-21T14:04:21;0.47;;;0.47;;
12383;SDS011;6256;63.808;20.336;2023-11-21T14:06:56;0.50;;;0.50;;
12383;SDS011;6256;63.808;20.336;2023-11-21T14:09:24;0.60;;;0.60;;
12383;SDS011;6256;63.808;20.336;2023-11-21T14:11:54;0.40;;;0.40;;
12383;SDS011;6256;63.808;20.336;2023-11-21T14:14:22;0.50;;;0.50;;
12383;SDS011;6256;63.808;20.336;2023-11-21T14:16:56;0.30;;;0.30;;
12383;SDS011;6256;63.808;20.336;2023-11-21T14:19:23;0.40;;;0.40;;
12383;SDS011;6256;63.808;20.336;2023-11-21T14:21:52;0.40;;;0.40;;
12383;SDS011;6256;63.808;20.336;2023-11-21T14:24:18;0.67;;;0.67;;
12383;SDS011;6256;63.808;20.336;2023-11-21T14:26:44;0.40;;;0.40;;
12383;SDS011;6256;63.808;20.336;2023-11-21T14:29:12;0.50;;;0.50;;
12383;SDS011;6256;63.808;20.336;2023-11-21T14:31:40;0.60;;;0.60;;
12383;SDS011;6256;63.808;20.336;2023-11-21T14:34:07;0.40;;;0.40;;
12383;SDS011;6256;63.808;20.336;2023-11-21T14:36:33;0.40;;;0.40;;
12383;SDS011;6256;63.808;20.336;2023-11-21T14:39:00;2.10;;;0.87;;
12383;SDS011;6256;63.808;20.336;2023-11-21T14:41:25;0.40;;;0.40;;
12383;SDS011;6256;63.808;20.336;2023-11-21T14:43:54;0.50;;;0.50;;
12383;SDS011;6256;63.808;20.336;2023-11-21T14:46:20;0.40;;;0.40;;
12383;SDS011;6256;63.808;20.336;2023-11-21T14:48:46;0.50;;;0.50;;
12383;SDS011;6256;63.808;20.336;2023-11-21T14:51:34;0.47;;;0.47;;
12383;SDS011;6256;63.808;20.336;2023-11-21T14:54:20;0.50;;;0.50;;
12383;SDS011;6256;63.808;20.336;2023-11-21T14:57:02;0.50;;;0.50;;
12383;SDS011;6256;63.808;20.336;2023-11-21T16:02:22;2.50;;;2.30;;
12383;SDS011;6256;63.808;20.336;2023-11-21T16:04:47;1.17;;;1.17;;
12383;SDS011;6256;63.808;20.336;2023-11-21T16:07:13;4.13;;;3.73;;
12383;SDS011;6256;63.808;20.336;2023-11-21T16:09:39;3.83;;;3.30;;
12383;SDS011;6256;63.808;20.336;2023-11-21T16:12:07;4.10;;;3.33;;
12383;SDS011;6256;63.808;20.336;2023-11-21T16:14:34;3.27;;;2.90;;